sensor_id;sensor_type;location;lat;lon;timestamp;pressure;altitude;pressure_sealevel;temperature;humidity
75895;BME280;64573;50.328;15.014;2023-04-22T00:02:03;98718.72;;;10.95;53.81
75895;BME280;64573;50.328;15.014;2023-04-22T00:04:29;98706.97;;;11.18;52.70
75895;BME280;64573;50.328;15.014;2023-04-22T00:06:54;98710.41;;;11.12;53.25
75895;BME280;64573;50.328;15.014;2023-04-22T00:09:20;98700.84;;;11.24;52.03
75895;BME280;64573;50.328;15.014;2023-04-22T00:11:46;98705.94;;;11.19;52.57
75895;BME280;64573;50.328;15.014;2023-04-22T00:14:11;98702.91;;;11.07;53.10
75895;BME280;64573;50.328;15.014;2023-04-22T00:16:37;98705.44;;;11.09;52.57
75895;BME280;64573;50.328;15.014;2023-04-22T00:19:03;98700.69;;;11.11;52.72
75895;BME280;64573;50.328;15.014;2023-04-22T00:21:28;98705.03;;;11.12;52.23
75895;BME280;64573;50.328;15.014;2023-04-22T00:23:54;98701.66;;;11.03;52.82
75895;BME280;64573;50.328;15.014;2023-04-22T00:26:19;98709.28;;;10.85;53.69
75895;BME280;64573;50.328;15.014;2023-04-22T00:28:45;98706.16;;;10.81;53.37
75895;BME280;64573;50.328;15.014;2023-04-22T00:31:10;98708.53;;;10.91;52.98
75895;BME280;64573;50.328;15.014;2023-04-22T00:33:36;98701.00;;;10.80;53.59
75895;BME280;64573;50.328;15.014;2023-04-22T00:36:01;98694.78;;;10.79;53.22
75895;BME280;64573;50.328;15.014;2023-04-22T00:38:26;98692.25;;;10.92;52.56
75895;BME280;64573;50.328;15.014;2023-04-22T00:40:52;98693.84;;;10.87;53.04
75895;BME280;64573;50.328;15.014;2023-04-22T00:43:17;98694.78;;;11.00;51.81
75895;BME280;64573;50.328;15.014;2023-04-22T00:45:43;98688.72;;;10.92;52.66
75895;BME280;64573;50.328;15.014;2023-04-22T00:48:08;98683.75;;;10.89;52.43
75895;BME280;64573;50.328;15.014;2023-04-22T00:50:34;98683.00;;;10.95;52.46
75895;BME280;64573;50.328;15.014;2023-04-22T00:52:59;98681.50;;;10.92;52.36
75895;BME280;64573;50.328;15.014;2023-04-22T00:55:25;98681.72;;;10.91;52.56
75895;BME280;64573;50.328;15.014;2023-04-22T00:57:53;98674.00;;;11.02;52.07
75895;BME280;64573;50.328;15.014;2023-04-22T01:00:19;98682.81;;;10.96;52.02
75895;BME280;64573;50.328;15.014;2023-04-22T01:02:45;98677.44;;;10.96;52.17
75895;BME280;64573;50.328;15.014;2023-04-22T01:05:11;98679.03;;;10.91;52.17
75895;BME280;64573;50.328;15.014;2023-04-22T01:07:36;98676.06;;;10.86;52.22
75895;BME280;64573;50.328;15.014;2023-04-22T01:10:02;98683.34;;;10.70;52.99
75895;BME280;64573;50.328;15.014;2023-04-22T01:12:28;98683.44;;;10.62;53.34
75895;BME280;64573;50.328;15.014;2023-04-22T01:14:53;98682.53;;;10.55;53.40
75895;BME280;64573;50.328;15.014;2023-04-22T01:17:19;98684.19;;;10.56;53.33
75895;BME280;64573;50.328;15.014;2023-04-22T01:19:46;98678.59;;;10.51;53.42
75895;BME280;64573;50.328;15.014;2023-04-22T01:22:13;98682.66;;;10.47;53.40
75895;BME280;64573;50.328;15.014;2023-04-22T01:24:38;98676.69;;;10.30;54.10
75895;BME280;64573;50.328;15.014;2023-04-22T01:27:04;98676.41;;;10.25;54.16
75895;BME280;64573;50.328;15.014;2023-04-22T01:29:29;98680.19;;;10.31;54.30
75895;BME280;64573;50.328;15.014;2023-04-22T01:31:55;98684.44;;;10.40;54.05
75895;BME280;64573;50.328;15.014;2023-04-22T01:34:21;98680.53;;;10.28;53.85
75895;BME280;64573;50.328;15.014;2023-04-22T01:36:47;98680.81;;;10.18;54.37
75895;BME280;64573;50.328;15.014;2023-04-22T01:39:13;98679.06;;;10.40;53.81
75895;BME280;64573;50.328;15.014;2023-04-22T01:41:38;98679.09;;;10.25;54.30
75895;BME280;64573;50.328;15.014;2023-04-22T01:44:05;98678.88;;;10.27;53.68
75895;BME280;64573;50.328;15.014;2023-04-22T01:46:32;98677.22;;;10.26;54.22
75895;BME280;64573;50.328;15.014;2023-04-22T01:48:57;98674.25;;;10.35;53.47
75895;BME280;64573;50.328;15.014;2023-04-22T01:51:22;98670.66;;;10.43;53.09
75895;BME280;64573;50.328;15.014;2023-04-22T01:53:48;98669.00;;;10.27;53.35
75895;BME280;64573;50.328;15.014;2023-04-22T01:56:14;98677.13;;;10.34;53.32
75895;BME280;64573;50.328;15.014;2023-04-22T01:58:39;98669.81;;;10.28;53.45
75895;BME280;64573;50.328;15.014;2023-04-22T02:01:05;98673.25;;;10.36;52.89
75895;BME280;64573;50.328;15.014;2023-04-22T02:03:31;98670.66;;;10.43;52.81
75895;BME280;64573;50.328;15.014;2023-04-22T02:05:56;98670.38;;;10.38;53.04
75895;BME280;64573;50.328;15.014;2023-04-22T02:08:22;98665.53;;;10.48;52.60
75895;BME280;64573;50.328;15.014;2023-04-22T02:10:47;98663.25;;;10.45;52.88
75895;BME280;64573;50.328;15.014;2023-04-22T02:13:12;98661.91;;;10.56;52.27
75895;BME280;64573;50.328;15.014;2023-04-22T02:15:38;98653.72;;;10.42;52.44
75895;BME280;64573;50.328;15.014;2023-04-22T02:18:04;98655.75;;;10.40;52.29
75895;BME280;64573;50.328;15.014;2023-04-22T02:20:30;98656.22;;;10.44;51.85
75895;BME280;64573;50.328;15.014;2023-04-22T02:22:55;98654.47;;;10.51;51.45
75895;BME280;64573;50.328;15.014;2023-04-22T02:25:21;98651.13;;;10.49;52.05
75895;BME280;64573;50.328;15.014;2023-04-22T02:27:46;98643.28;;;10.47;52.00
75895;BME280;64573;50.328;15.014;2023-04-22T02:30:11;98632.00;;;10.52;51.26
75895;BME280;64573;50.328;15.014;2023-04-22T02:32:37;98653.63;;;10.51;51.76
75895;BME280;64573;50.328;15.014;2023-04-22T02:35:04;98651.59;;;10.53;51.69
75895;BME280;64573;50.328;15.014;2023-04-22T02:37:29;98650.75;;;10.52;51.42
75895;BME280;64573;50.328;15.014;2023-04-22T02:39:55;98655.41;;;10.43;51.97
75895;BME280;64573;50.328;15.014;2023-04-22T02:42:21;98647.53;;;10.42;51.44
75895;BME280;64573;50.328;15.014;2023-04-22T02:44:46;98647.25;;;10.52;51.25
75895;BME280;64573;50.328;15.014;2023-04-22T02:47:11;98648.06;;;10.52;51.10
75895;BME280;64573;50.328;15.014;2023-04-22T02:49:37;98642.72;;;10.52;51.48
75895;BME280;64573;50.328;15.014;2023-04-22T02:52:02;98649.03;;;10.44;51.38
75895;BME280;64573;50.328;15.014;2023-04-22T02:54:27;98639.25;;;10.37;51.84
75895;BME280;64573;50.328;15.014;2023-04-22T02:56:53;98638.56;;;10.35;51.96
75895;BME280;64573;50.328;15.014;2023-04-22T02:59:18;98637.13;;;10.32;51.86
75895;BME280;64573;50.328;15.014;2023-04-22T03:01:43;98626.78;;;10.14;52.38
75895;BME280;64573;50.328;15.014;2023-04-22T03:04:09;98632.50;;;10.26;51.59
75895;BME280;64573;50.328;15.014;2023-04-22T03:06:36;98629.81;;;10.11;51.96
75895;BME280;64573;50.328;15.014;2023-04-22T03:09:01;98637.03;;;10.26;51.44
75895;BME280;64573;50.328;15.014;2023-04-22T03:11:27;98634.03;;;10.20;52.60
75895;BME280;64573;50.328;15.014;2023-04-22T03:13:52;98630.81;;;10.40;51.42
75895;BME280;64573;50.328;15.014;2023-04-22T03:16:17;98630.19;;;10.38;50.95
75895;BME280;64573;50.328;15.014;2023-04-22T03:18:43;98628.75;;;10.42;50.94
75895;BME280;64573;50.328;15.014;2023-04-22T03:21:08;98631.56;;;10.34;50.82
75895;BME280;64573;50.328;15.014;2023-04-22T03:23:33;98622.69;;;10.33;51.35
75895;BME280;64573;50.328;15.014;2023-04-22T03:25:59;98626.00;;;10.35;51.06
75895;BME280;64573;50.328;15.014;2023-04-22T03:28:25;98629.44;;;10.14;50.96
75895;BME280;64573;50.328;15.014;2023-04-22T03:30:50;98631.31;;;10.29;51.36
75895;BME280;64573;50.328;15.014;2023-04-22T03:33:16;98634.97;;;10.28;51.19
75895;BME280;64573;50.328;15.014;2023-04-22T03:35:42;98636.09;;;10.18;51.55
75895;BME280;64573;50.328;15.014;2023-04-22T03:38:07;98637.84;;;9.97;52.69
75895;BME280;64573;50.328;15.014;2023-04-22T03:40:33;98650.16;;;9.24;56.50
75895;BME280;64573;50.328;15.014;2023-04-22T03:42:58;98645.88;;;8.69;58.44
75895;BME280;64573;50.328;15.014;2023-04-22T03:45:23;98641.91;;;8.34;59.55
75895;BME280;64573;50.328;15.014;2023-04-22T03:47:49;98653.34;;;8.19;59.94
75895;BME280;64573;50.328;15.014;2023-04-22T03:50:14;98644.91;;;7.99;61.10
75895;BME280;64573;50.328;15.014;2023-04-22T03:52:39;98650.63;;;7.80;62.12
75895;BME280;64573;50.328;15.014;2023-04-22T03:55:05;98650.50;;;7.65;63.08
75895;BME280;64573;50.328;15.014;2023-04-22T03:57:30;98652.88;;;7.44;64.66
75895;BME280;64573;50.328;15.014;2023-04-22T03:59:56;98643.41;;;7.09;68.25
75895;BME280;64573;50.328;15.014;2023-04-22T04:02:21;98652.25;;;6.93;70.91
75895;BME280;64573;50.328;15.014;2023-04-22T04:04:46;98645.25;;;6.76;71.90
75895;BME280;64573;50.328;15.014;2023-04-22T04:07:12;98650.75;;;6.74;71.03
75895;BME280;64573;50.328;15.014;2023-04-22T04:09:37;98647.38;;;6.64;72.10
75895;BME280;64573;50.328;15.014;2023-04-22T04:12:03;98638.53;;;6.47;74.00
75895;BME280;64573;50.328;15.014;2023-04-22T04:14:28;98636.06;;;6.54;73.92
75895;BME280;64573;50.328;15.014;2023-04-22T04:16:53;98635.72;;;6.73;73.09
75895;BME280;64573;50.328;15.014;2023-04-22T04:19:19;98636.09;;;7.03;69.99
75895;BME280;64573;50.328;15.014;2023-04-22T04:21:44;98642.72;;;7.47;66.18
75895;BME280;64573;50.328;15.014;2023-04-22T04:24:09;98646.59;;;7.12;70.75
75895;BME280;64573;50.328;15.014;2023-04-22T04:26:35;98640.41;;;6.87;76.02
75895;BME280;64573;50.328;15.014;2023-04-22T04:29:00;98635.94;;;6.96;74.35
75895;BME280;64573;50.328;15.014;2023-04-22T04:31:29;98634.03;;;7.45;71.06
75895;BME280;64573;50.328;15.014;2023-04-22T04:33:54;98628.44;;;7.80;69.71
75895;BME280;64573;50.328;15.014;2023-04-22T04:36:22;98640.38;;;8.00;68.35
75895;BME280;64573;50.328;15.014;2023-04-22T04:38:48;98639.25;;;8.34;66.12
75895;BME280;64573;50.328;15.014;2023-04-22T04:41:14;98630.72;;;8.61;64.25
75895;BME280;64573;50.328;15.014;2023-04-22T04:43:39;98634.53;;;8.90;62.85
75895;BME280;64573;50.328;15.014;2023-04-22T04:46:04;98642.44;;;8.83;61.91
75895;BME280;64573;50.328;15.014;2023-04-22T04:48:30;98645.81;;;8.54;65.15
75895;BME280;64573;50.328;15.014;2023-04-22T04:50:59;98654.69;;;8.15;67.83
75895;BME280;64573;50.328;15.014;2023-04-22T04:53:25;98648.31;;;8.16;70.13
75895;BME280;64573;50.328;15.014;2023-04-22T04:55:50;98652.53;;;8.50;69.76
75895;BME280;64573;50.328;15.014;2023-04-22T04:58:16;98648.63;;;8.61;69.44
75895;BME280;64573;50.328;15.014;2023-04-22T05:00:41;98651.28;;;8.83;67.81
75895;BME280;64573;50.328;15.014;2023-04-22T05:03:06;98655.28;;;8.88;65.74
75895;BME280;64573;50.328;15.014;2023-04-22T05:05:32;98656.16;;;8.57;64.91
75895;BME280;64573;50.328;15.014;2023-04-22T05:07:57;98650.59;;;8.90;64.59
75895;BME280;64573;50.328;15.014;2023-04-22T05:10:23;98652.94;;;8.93;63.55
75895;BME280;64573;50.328;15.014;2023-04-22T05:15:18;98655.94;;;8.67;67.75
75895;BME280;64573;50.328;15.014;2023-04-22T05:17:44;98661.41;;;8.96;68.16
75895;BME280;64573;50.328;15.014;2023-04-22T05:20:09;98652.72;;;9.17;65.85
75895;BME280;64573;50.328;15.014;2023-04-22T05:22:35;98666.75;;;9.57;64.26
75895;BME280;64573;50.328;15.014;2023-04-22T05:25:07;98657.59;;;9.51;66.82
75895;BME280;64573;50.328;15.014;2023-04-22T05:27:33;98656.78;;;9.65;66.38
75895;BME280;64573;50.328;15.014;2023-04-22T05:29:59;98656.31;;;9.91;67.12
75895;BME280;64573;50.328;15.014;2023-04-22T05:32:24;98663.34;;;10.52;62.72
75895;BME280;64573;50.328;15.014;2023-04-22T05:34:49;98663.38;;;11.16;61.67
75895;BME280;64573;50.328;15.014;2023-04-22T05:37:15;98657.47;;;11.27;59.04
75895;BME280;64573;50.328;15.014;2023-04-22T05:39:40;98654.53;;;11.22;61.04
75895;BME280;64573;50.328;15.014;2023-04-22T05:42:06;98652.78;;;11.85;56.72
75895;BME280;64573;50.328;15.014;2023-04-22T05:44:33;98660.56;;;12.08;58.35
75895;BME280;64573;50.328;15.014;2023-04-22T05:47:02;98646.59;;;12.87;50.42
75895;BME280;64573;50.328;15.014;2023-04-22T05:51:55;98661.53;;;11.72;64.65
75895;BME280;64573;50.328;15.014;2023-04-22T05:54:20;98668.44;;;11.53;65.32
75895;BME280;64573;50.328;15.014;2023-04-22T05:56:46;98666.84;;;11.59;65.13
75895;BME280;64573;50.328;15.014;2023-04-22T05:59:11;98673.72;;;12.37;60.63
75895;BME280;64573;50.328;15.014;2023-04-22T06:01:36;98668.16;;;13.07;56.98
75895;BME280;64573;50.328;15.014;2023-04-22T06:04:05;98678.13;;;13.99;56.40
75895;BME280;64573;50.328;15.014;2023-04-22T06:06:31;98673.19;;;13.69;56.94
75895;BME280;64573;50.328;15.014;2023-04-22T06:08:56;98672.88;;;14.17;55.54
75895;BME280;64573;50.328;15.014;2023-04-22T06:11:22;98671.72;;;13.93;56.70
75895;BME280;64573;50.328;15.014;2023-04-22T06:13:47;98667.97;;;14.66;51.89
75895;BME280;64573;50.328;15.014;2023-04-22T06:16:13;98665.50;;;15.02;42.57
75895;BME280;64573;50.328;15.014;2023-04-22T06:18:38;98668.94;;;15.73;39.96
75895;BME280;64573;50.328;15.014;2023-04-22T06:21:04;98669.66;;;16.05;38.04
75895;BME280;64573;50.328;15.014;2023-04-22T06:23:29;98664.66;;;15.83;38.96
75895;BME280;64573;50.328;15.014;2023-04-22T06:25:55;98662.13;;;15.88;38.49
75895;BME280;64573;50.328;15.014;2023-04-22T06:28:22;98670.78;;;15.47;38.73
75895;BME280;64573;50.328;15.014;2023-04-22T06:30:47;98663.59;;;15.66;39.27
75895;BME280;64573;50.328;15.014;2023-04-22T06:33:13;98665.94;;;15.81;38.95
75895;BME280;64573;50.328;15.014;2023-04-22T06:35:38;98663.81;;;16.26;37.98
75895;BME280;64573;50.328;15.014;2023-04-22T06:38:04;98666.06;;;16.29;37.57
75895;BME280;64573;50.328;15.014;2023-04-22T06:40:29;98662.72;;;16.64;37.79
75895;BME280;64573;50.328;15.014;2023-04-22T06:42:55;98660.34;;;16.55;37.82
75895;BME280;64573;50.328;15.014;2023-04-22T06:45:20;98666.78;;;17.45;35.66
75895;BME280;64573;50.328;15.014;2023-04-22T06:47:45;98663.94;;;16.49;38.16
75895;BME280;64573;50.328;15.014;2023-04-22T06:50:11;98655.16;;;16.36;36.89
75895;BME280;64573;50.328;15.014;2023-04-22T06:52:36;98680.25;;;16.61;36.64
75895;BME280;64573;50.328;15.014;2023-04-22T06:55:02;98665.81;;;16.49;36.81
75895;BME280;64573;50.328;15.014;2023-04-22T06:57:28;98664.16;;;16.85;36.36
75895;BME280;64573;50.328;15.014;2023-04-22T06:59:54;98669.75;;;17.01;35.80
75895;BME280;64573;50.328;15.014;2023-04-22T07:02:20;98670.06;;;16.08;37.44
75895;BME280;64573;50.328;15.014;2023-04-22T07:04:45;98662.88;;;16.50;37.38
75895;BME280;64573;50.328;15.014;2023-04-22T07:07:11;98666.69;;;16.98;37.37
75895;BME280;64573;50.328;15.014;2023-04-22T07:09:36;98665.47;;;18.12;33.21
75895;BME280;64573;50.328;15.014;2023-04-22T07:12:02;98668.28;;;17.71;34.86
75895;BME280;64573;50.328;15.014;2023-04-22T07:14:27;98663.25;;;18.50;33.68
75895;BME280;64573;50.328;15.014;2023-04-22T07:16:53;98658.72;;;17.80;34.02
75895;BME280;64573;50.328;15.014;2023-04-22T07:19:19;98665.16;;;17.44;36.13
75895;BME280;64573;50.328;15.014;2023-04-22T07:21:45;98659.69;;;18.72;33.81
75895;BME280;64573;50.328;15.014;2023-04-22T07:24:10;98660.16;;;17.94;35.19
75895;BME280;64573;50.328;15.014;2023-04-22T07:29:02;98653.78;;;19.66;32.31
75895;BME280;64573;50.328;15.014;2023-04-22T07:31:28;98657.75;;;20.53;30.94
75895;BME280;64573;50.328;15.014;2023-04-22T07:33:53;98662.03;;;19.71;30.35
75895;BME280;64573;50.328;15.014;2023-04-22T07:36:19;98660.16;;;20.10;30.07
75895;BME280;64573;50.328;15.014;2023-04-22T07:38:44;98656.81;;;19.70;30.86
75895;BME280;64573;50.328;15.014;2023-04-22T07:41:09;98659.56;;;19.24;32.19
75895;BME280;64573;50.328;15.014;2023-04-22T07:43:35;98662.69;;;18.88;33.13
75895;BME280;64573;50.328;15.014;2023-04-22T07:46:00;98659.25;;;20.05;30.43
75895;BME280;64573;50.328;15.014;2023-04-22T07:48:25;98660.06;;;19.38;30.40
75895;BME280;64573;50.328;15.014;2023-04-22T07:50:51;98655.97;;;19.52;30.83
75895;BME280;64573;50.328;15.014;2023-04-22T07:53:16;98655.75;;;20.70;29.58
75895;BME280;64573;50.328;15.014;2023-04-22T07:55:42;98654.25;;;19.80;29.84
75895;BME280;64573;50.328;15.014;2023-04-22T07:58:10;98650.47;;;19.64;29.42
75895;BME280;64573;50.328;15.014;2023-04-22T08:00:35;98655.88;;;20.36;30.84
75895;BME280;64573;50.328;15.014;2023-04-22T08:03:01;98656.00;;;19.86;32.14
75895;BME280;64573;50.328;15.014;2023-04-22T08:05:27;98661.63;;;20.18;30.79
75895;BME280;64573;50.328;15.014;2023-04-22T08:07:53;98661.97;;;20.05;29.62
75895;BME280;64573;50.328;15.014;2023-04-22T08:10:18;98655.53;;;20.99;27.44
75895;BME280;64573;50.328;15.014;2023-04-22T08:12:43;98667.63;;;21.99;27.43
75895;BME280;64573;50.328;15.014;2023-04-22T08:15:09;98666.53;;;23.00;25.60
75895;BME280;64573;50.328;15.014;2023-04-22T08:17:35;98661.38;;;23.29;26.82
75895;BME280;64573;50.328;15.014;2023-04-22T08:20:00;98664.13;;;23.29;25.92
75895;BME280;64573;50.328;15.014;2023-04-22T08:22:25;98657.28;;;23.26;24.55
75895;BME280;64573;50.328;15.014;2023-04-22T08:24:51;98665.44;;;23.01;25.79
75895;BME280;64573;50.328;15.014;2023-04-22T08:27:17;98664.94;;;23.34;25.45
75895;BME280;64573;50.328;15.014;2023-04-22T08:29:43;98663.06;;;23.40;25.70
75895;BME280;64573;50.328;15.014;2023-04-22T08:32:09;98662.22;;;23.45;25.48
75895;BME280;64573;50.328;15.014;2023-04-22T08:34:34;98657.47;;;22.94;26.55
75895;BME280;64573;50.328;15.014;2023-04-22T08:39:29;98655.41;;;23.47;25.55
75895;BME280;64573;50.328;15.014;2023-04-22T08:41:54;98659.75;;;24.14;25.06
75895;BME280;64573;50.328;15.014;2023-04-22T08:44:23;98654.50;;;24.28;25.32
75895;BME280;64573;50.328;15.014;2023-04-22T08:46:48;98652.19;;;22.72;26.09
75895;BME280;64573;50.328;15.014;2023-04-22T08:49:15;98660.03;;;24.13;25.13
75895;BME280;64573;50.328;15.014;2023-04-22T08:51:41;98657.00;;;24.09;25.21
75895;BME280;64573;50.328;15.014;2023-04-22T08:54:07;98656.41;;;24.43;24.80
75895;BME280;64573;50.328;15.014;2023-04-22T08:56:33;98654.28;;;23.58;25.02
75895;BME280;64573;50.328;15.014;2023-04-22T08:58:59;98648.53;;;23.50;26.62
75895;BME280;64573;50.328;15.014;2023-04-22T09:01:26;98643.00;;;24.21;24.57
75895;BME280;64573;50.328;15.014;2023-04-22T09:03:54;98645.66;;;22.78;28.24
75895;BME280;64573;50.328;15.014;2023-04-22T09:06:22;98646.81;;;24.40;24.95
75895;BME280;64573;50.328;15.014;2023-04-22T09:08:48;98651.00;;;24.87;25.31
75895;BME280;64573;50.328;15.014;2023-04-22T09:11:15;98649.38;;;23.65;25.43
75895;BME280;64573;50.328;15.014;2023-04-22T09:13:46;98649.34;;;24.06;24.96
75895;BME280;64573;50.328;15.014;2023-04-22T09:16:12;98646.00;;;24.25;25.25
75895;BME280;64573;50.328;15.014;2023-04-22T09:18:41;98654.13;;;24.60;25.49
75895;BME280;64573;50.328;15.014;2023-04-22T09:21:07;98651.69;;;24.59;25.81
75895;BME280;64573;50.328;15.014;2023-04-22T09:23:33;98646.56;;;25.41;24.31
75895;BME280;64573;50.328;15.014;2023-04-22T09:25:58;98649.88;;;24.03;24.75
75895;BME280;64573;50.328;15.014;2023-04-22T09:28:25;98635.38;;;23.52;25.71
75895;BME280;64573;50.328;15.014;2023-04-22T09:30:50;98635.94;;;23.18;26.28
75895;BME280;64573;50.328;15.014;2023-04-22T09:33:15;98632.38;;;23.53;25.83
75895;BME280;64573;50.328;15.014;2023-04-22T09:35:42;98625.69;;;22.78;27.10
75895;BME280;64573;50.328;15.014;2023-04-22T09:38:09;98630.91;;;22.22;28.06
75895;BME280;64573;50.328;15.014;2023-04-22T09:40:37;98635.06;;;23.02;26.43
75895;BME280;64573;50.328;15.014;2023-04-22T09:43:06;98629.88;;;23.01;27.37
75895;BME280;64573;50.328;15.014;2023-04-22T09:45:38;98623.38;;;23.68;26.84
75895;BME280;64573;50.328;15.014;2023-04-22T09:48:08;98624.75;;;24.71;24.81
75895;BME280;64573;50.328;15.014;2023-04-22T09:50:34;98624.47;;;25.22;22.82
75895;BME280;64573;50.328;15.014;2023-04-22T09:53:02;98621.28;;;25.44;22.23
75895;BME280;64573;50.328;15.014;2023-04-22T09:55:30;98617.56;;;24.85;24.20
75895;BME280;64573;50.328;15.014;2023-04-22T09:57:56;98609.81;;;24.33;25.43
75895;BME280;64573;50.328;15.014;2023-04-22T10:00:24;98593.19;;;21.34;25.75
75895;BME280;64573;50.328;15.014;2023-04-22T10:02:51;98607.22;;;23.21;26.69
75895;BME280;64573;50.328;15.014;2023-04-22T10:05:17;98618.41;;;20.65;27.94
75895;BME280;64573;50.328;15.014;2023-04-22T10:07:43;98603.06;;;23.03;24.41
75895;BME280;64573;50.328;15.014;2023-04-22T10:10:09;98600.09;;;23.35;24.50
75895;BME280;64573;50.328;15.014;2023-04-22T10:12:35;98597.53;;;20.76;28.95
75895;BME280;64573;50.328;15.014;2023-04-22T10:15:02;98594.66;;;22.32;26.58
75895;BME280;64573;50.328;15.014;2023-04-22T10:17:30;98596.00;;;23.27;26.27
75895;BME280;64573;50.328;15.014;2023-04-22T10:19:59;98587.94;;;22.65;26.17
75895;BME280;64573;50.328;15.014;2023-04-22T10:22:28;98593.84;;;21.19;27.03
75895;BME280;64573;50.328;15.014;2023-04-22T10:24:54;98584.06;;;21.56;26.20
75895;BME280;64573;50.328;15.014;2023-04-22T10:27:21;98593.25;;;22.29;25.59
75895;BME280;64573;50.328;15.014;2023-04-22T10:29:47;98594.91;;;23.69;24.32
75895;BME280;64573;50.328;15.014;2023-04-22T10:34:47;98591.28;;;23.99;23.64
75895;BME280;64573;50.328;15.014;2023-04-22T10:37:16;98589.03;;;24.21;24.32
75895;BME280;64573;50.328;15.014;2023-04-22T10:40:05;98585.09;;;22.34;25.70
75895;BME280;64573;50.328;15.014;2023-04-22T10:42:33;98591.53;;;21.70;28.34
75895;BME280;64573;50.328;15.014;2023-04-22T10:45:02;98574.56;;;21.63;27.11
75895;BME280;64573;50.328;15.014;2023-04-22T10:52:49;98575.69;;;22.82;25.49
75895;BME280;64573;50.328;15.014;2023-04-22T10:55:15;98571.91;;;23.14;27.03
75895;BME280;64573;50.328;15.014;2023-04-22T10:57:45;98566.63;;;24.69;23.61
75895;BME280;64573;50.328;15.014;2023-04-22T11:03:24;98566.34;;;25.15;23.17
75895;BME280;64573;50.328;15.014;2023-04-22T11:06:17;98555.25;;;25.30;22.91
75895;BME280;64573;50.328;15.014;2023-04-22T11:08:48;98561.88;;;26.11;23.75
75895;BME280;64573;50.328;15.014;2023-04-22T11:11:15;98539.47;;;25.46;21.26
75895;BME280;64573;50.328;15.014;2023-04-22T11:13:41;98558.78;;;26.42;21.18
75895;BME280;64573;50.328;15.014;2023-04-22T11:16:11;98550.00;;;25.34;22.98
75895;BME280;64573;50.328;15.014;2023-04-22T11:18:37;98548.00;;;25.44;23.22
75895;BME280;64573;50.328;15.014;2023-04-22T11:21:04;98548.13;;;25.58;22.35
75895;BME280;64573;50.328;15.014;2023-04-22T11:23:30;98548.78;;;26.03;22.37
75895;BME280;64573;50.328;15.014;2023-04-22T11:26:02;98543.03;;;26.23;21.79
75895;BME280;64573;50.328;15.014;2023-04-22T11:28:28;98538.22;;;26.77;20.76
75895;BME280;64573;50.328;15.014;2023-04-22T11:31:04;98540.94;;;26.15;22.42
75895;BME280;64573;50.328;15.014;2023-04-22T11:33:31;98538.19;;;26.58;22.67
75895;BME280;64573;50.328;15.014;2023-04-22T11:35:57;98538.44;;;27.18;21.91
75895;BME280;64573;50.328;15.014;2023-04-22T11:38:23;98536.25;;;26.39;22.36
75895;BME280;64573;50.328;15.014;2023-04-22T11:40:54;98545.19;;;26.50;22.13
75895;BME280;64573;50.328;15.014;2023-04-22T11:43:22;98531.88;;;26.57;20.45
75895;BME280;64573;50.328;15.014;2023-04-22T11:45:48;98525.44;;;26.24;21.21
75895;BME280;64573;50.328;15.014;2023-04-22T11:48:14;98529.22;;;24.83;21.78
75895;BME280;64573;50.328;15.014;2023-04-22T11:50:41;98528.22;;;24.19;22.60
75895;BME280;64573;50.328;15.014;2023-04-22T11:55:49;98512.53;;;23.40;23.92
75895;BME280;64573;50.328;15.014;2023-04-22T11:58:23;98517.19;;;23.39;24.57
75895;BME280;64573;50.328;15.014;2023-04-22T12:00:50;98520.03;;;25.03;23.01
75895;BME280;64573;50.328;15.014;2023-04-22T12:03:24;98512.81;;;26.23;21.54
75895;BME280;64573;50.328;15.014;2023-04-22T12:05:52;98511.75;;;26.81;21.04
75895;BME280;64573;50.328;15.014;2023-04-22T12:08:23;98515.38;;;26.15;21.44
75895;BME280;64573;50.328;15.014;2023-04-22T12:10:52;98514.50;;;26.81;21.09
75895;BME280;64573;50.328;15.014;2023-04-22T12:13:26;98515.59;;;26.42;21.61
75895;BME280;64573;50.328;15.014;2023-04-22T12:16:10;98509.94;;;27.09;20.83
75895;BME280;64573;50.328;15.014;2023-04-22T12:18:57;98517.53;;;26.79;22.08
75895;BME280;64573;50.328;15.014;2023-04-22T12:21:25;98508.16;;;26.99;21.89
75895;BME280;64573;50.328;15.014;2023-04-22T12:26:23;98508.09;;;27.37;20.17
75895;BME280;64573;50.328;15.014;2023-04-22T12:28:49;98499.03;;;27.50;20.76
75895;BME280;64573;50.328;15.014;2023-04-22T12:31:16;98505.56;;;27.40;20.64
75895;BME280;64573;50.328;15.014;2023-04-22T12:33:42;98489.66;;;27.51;20.46
75895;BME280;64573;50.328;15.014;2023-04-22T12:36:08;98493.53;;;28.82;20.00
75895;BME280;64573;50.328;15.014;2023-04-22T12:38:34;98481.53;;;28.15;21.48
75895;BME280;64573;50.328;15.014;2023-04-22T12:41:00;98489.53;;;26.39;22.25
75895;BME280;64573;50.328;15.014;2023-04-22T12:43:26;98482.97;;;25.64;22.98
75895;BME280;64573;50.328;15.014;2023-04-22T12:45:51;98490.03;;;25.46;24.78
75895;BME280;64573;50.328;15.014;2023-04-22T12:48:17;98482.22;;;26.49;22.40
75895;BME280;64573;50.328;15.014;2023-04-22T12:50:42;98481.75;;;27.17;21.08
75895;BME280;64573;50.328;15.014;2023-04-22T12:53:08;98483.84;;;27.66;20.73
75895;BME280;64573;50.328;15.014;2023-04-22T12:55:35;98480.09;;;27.62;20.72
75895;BME280;64573;50.328;15.014;2023-04-22T12:58:00;98468.78;;;27.91;20.36
75895;BME280;64573;50.328;15.014;2023-04-22T13:00:26;98466.78;;;27.37;21.52
75895;BME280;64573;50.328;15.014;2023-04-22T13:02:52;98468.00;;;27.44;21.13
75895;BME280;64573;50.328;15.014;2023-04-22T13:05:18;98466.69;;;26.77;21.66
75895;BME280;64573;50.328;15.014;2023-04-22T13:07:44;98468.44;;;27.65;20.74
75895;BME280;64573;50.328;15.014;2023-04-22T13:10:13;98463.75;;;27.66;21.37
75895;BME280;64573;50.328;15.014;2023-04-22T13:12:40;98457.38;;;27.70;20.35
75895;BME280;64573;50.328;15.014;2023-04-22T13:15:06;98456.06;;;27.35;20.90